createdAt,value
2022-08-26T00:01:55.660Z,56.00
2022-08-26T00:04:25.347Z,56.10
2022-08-26T00:06:53.889Z,56.00
2022-08-26T00:09:20.991Z,56.00
2022-08-26T00:11:47.760Z,56.10
2022-08-26T00:14:16.258Z,56.20
2022-08-26T00:16:47.586Z,56.00
2022-08-26T00:19:19.052Z,56.00
2022-08-26T00:21:48.719Z,56.00
2022-08-26T00:24:18.157Z,56.00
2022-08-26T00:26:44.916Z,56.10
2022-08-26T00:29:12.289Z,56.00
2022-08-26T00:31:39.895Z,56.00
2022-08-26T00:34:06.847Z,56.00
2022-08-26T00:36:37.894Z,56.00
2022-08-26T00:39:07.403Z,55.80
2022-08-26T00:41:35.917Z,56.00
2022-08-26T00:44:03.047Z,55.90
2022-08-26T00:46:37.593Z,55.80
2022-08-26T00:49:17.843Z,55.80
2022-08-26T00:51:49.576Z,56.00
2022-08-26T00:54:19.400Z,55.90
2022-08-26T00:56:57.742Z,55.90
2022-08-26T00:59:27.531Z,56.10
2022-08-26T01:01:54.471Z,55.90
2022-08-26T01:04:23.590Z,56.00
2022-08-26T01:06:54.670Z,55.90
2022-08-26T01:09:23.274Z,55.90
2022-08-26T01:11:53.071Z,55.70
2022-08-26T01:14:22.212Z,55.80
2022-08-26T01:16:49.478Z,56.20
2022-08-26T01:19:24.976Z,56.10
2022-08-26T01:22:09.766Z,55.90
2022-08-26T01:24:38.009Z,56.30
2022-08-26T01:27:08.702Z,55.70
2022-08-26T01:29:39.207Z,55.90
2022-08-26T01:32:08.856Z,55.70
2022-08-26T01:34:37.854Z,55.80
2022-08-26T01:37:15.968Z,55.60
2022-08-26T01:39:45.028Z,55.60
2022-08-26T01:42:14.601Z,55.70
2022-08-26T01:44:57.415Z,55.70
2022-08-26T01:47:27.922Z,56.10
2022-08-26T01:49:59.819Z,55.70
2022-08-26T01:52:30.115Z,55.80
2022-08-26T01:54:58.599Z,55.70
2022-08-26T01:57:26.338Z,55.70
2022-08-26T01:59:58.151Z,56.10
2022-08-26T02:02:25.352Z,55.70
2022-08-26T02:05:01.526Z,56.00
2022-08-26T02:07:29.282Z,55.80
2022-08-26T02:09:56.873Z,55.80
2022-08-26T02:12:26.100Z,55.80
2022-08-26T02:14:56.799Z,56.10
2022-08-26T02:17:29.036Z,56.00
2022-08-26T02:19:56.725Z,55.80
2022-08-26T02:22:24.695Z,55.80
2022-08-26T02:24:54.074Z,55.80
2022-08-26T02:27:28.250Z,55.80
2022-08-26T02:30:12.866Z,56.00
2022-08-26T02:32:41.269Z,55.80
2022-08-26T02:35:10.556Z,55.60
2022-08-26T02:37:42.026Z,56.20
2022-08-26T02:40:11.073Z,56.00
2022-08-26T02:42:38.078Z,55.90
2022-08-26T02:45:06.366Z,55.80
2022-08-26T02:47:34.422Z,55.80
2022-08-26T02:50:01.869Z,55.80
2022-08-26T02:52:29.077Z,56.40
2022-08-26T02:54:55.853Z,56.20
2022-08-26T02:57:22.927Z,56.10
2022-08-26T02:59:51.099Z,56.00
2022-08-26T03:02:17.823Z,56.10
2022-08-26T03:04:57.984Z,56.60
2022-08-26T03:07:29.718Z,56.10
2022-08-26T03:09:57.130Z,56.10
2022-08-26T03:12:24.247Z,56.10
2022-08-26T03:14:52.632Z,56.20
2022-08-26T03:17:19.326Z,56.20
2022-08-26T03:19:46.017Z,56.20
2022-08-26T03:22:14.505Z,56.30
2022-08-26T03:24:41.548Z,56.40
2022-08-26T03:27:12.906Z,56.40
2022-08-26T03:29:59.953Z,56.60
2022-08-26T03:32:27.051Z,56.40
2022-08-26T03:34:54.510Z,56.50
2022-08-26T03:37:23.977Z,56.70
2022-08-26T03:39:51.075Z,56.40
2022-08-26T03:42:17.814Z,56.50
2022-08-26T03:44:49.206Z,56.50
2022-08-26T03:47:15.935Z,56.40
2022-08-26T03:49:42.919Z,56.50
2022-08-26T03:52:10.481Z,56.40
2022-08-26T03:54:37.656Z,56.50
2022-08-26T03:57:04.699Z,56.50
2022-08-26T03:59:32.019Z,56.70
2022-08-26T04:01:58.865Z,56.50
2022-08-26T04:04:25.789Z,56.30
2022-08-26T04:06:58.292Z,56.50
2022-08-26T04:09:27.709Z,56.30
2022-08-26T04:11:55.990Z,56.20
2022-08-26T04:14:26.032Z,56.30
2022-08-26T04:16:55.496Z,56.40
2022-08-26T04:19:23.658Z,56.30
2022-08-26T04:21:53.252Z,56.40
2022-08-26T04:24:22.288Z,58.70
2022-08-26T04:26:49.400Z,56.60
2022-08-26T04:29:19.938Z,56.10
2022-08-26T04:31:50.464Z,56.10
2022-08-26T04:34:28.367Z,56.10
2022-08-26T04:36:56.093Z,56.10
2022-08-26T04:39:22.861Z,56.30
2022-08-26T04:41:50.794Z,56.10
2022-08-26T04:44:18.643Z,55.90
2022-08-26T04:46:45.497Z,55.80
2022-08-26T04:49:13.444Z,55.80
2022-08-26T04:51:40.315Z,56.40
2022-08-26T04:54:07.792Z,55.90
2022-08-26T04:56:37.651Z,55.80
2022-08-26T04:59:07.999Z,56.00
2022-08-26T05:01:45.748Z,55.80
2022-08-26T05:04:13.517Z,55.80
2022-08-26T05:06:43.641Z,56.00
2022-08-26T05:09:13.479Z,56.00
2022-08-26T05:11:42.431Z,56.20
2022-08-26T05:14:11.878Z,56.00
2022-08-26T05:16:40.333Z,56.00
2022-08-26T05:19:08.425Z,56.00
2022-08-26T05:21:35.690Z,56.00
2022-08-26T05:24:02.859Z,56.60
2022-08-26T05:26:32.343Z,56.20
2022-08-26T05:29:00.170Z,56.00
2022-08-26T05:31:30.058Z,56.10
2022-08-26T05:33:57.664Z,56.00
2022-08-26T05:36:27.859Z,56.10
2022-08-26T05:38:55.951Z,56.20
2022-08-26T05:41:34.578Z,56.30
2022-08-26T05:44:07.172Z,56.10
2022-08-26T05:46:35.181Z,56.20
2022-08-26T05:49:02.021Z,56.30
2022-08-26T05:51:29.268Z,57.10
2022-08-26T05:53:57.958Z,56.50
2022-08-26T05:56:26.138Z,56.80
2022-08-26T05:58:53.472Z,56.30
2022-08-26T06:01:26.029Z,56.30
2022-08-26T06:03:56.499Z,56.40
2022-08-26T06:06:30.198Z,56.80
2022-08-26T06:08:59.453Z,56.60
2022-08-26T06:11:28.068Z,56.20
2022-08-26T06:14:03.780Z,56.40
2022-08-26T06:16:34.601Z,56.30
2022-08-26T06:19:10.582Z,56.30
2022-08-26T06:21:40.685Z,56.30
2022-08-26T06:24:28.611Z,56.40
2022-08-26T06:26:56.909Z,56.50
2022-08-26T06:29:26.057Z,56.90
2022-08-26T06:31:54.305Z,56.30
2022-08-26T06:34:26.581Z,56.60
2022-08-26T06:36:58.578Z,56.50
2022-08-26T06:39:26.424Z,56.50
2022-08-26T06:41:53.225Z,57.20
2022-08-26T06:44:20.260Z,56.70
2022-08-26T06:46:50.643Z,56.10
2022-08-26T06:49:18.593Z,56.20
2022-08-26T06:51:53.332Z,56.50
2022-08-26T06:54:20.476Z,56.00
2022-08-26T06:56:47.952Z,56.10
2022-08-26T06:59:15.339Z,56.50
2022-08-26T07:01:44.916Z,56.60
2022-08-26T07:04:15.507Z,56.40
2022-08-26T07:06:47.091Z,56.10
2022-08-26T07:09:14.150Z,56.10
2022-08-26T07:11:41.331Z,55.80
2022-08-26T07:14:09.038Z,55.90
2022-08-26T07:16:36.194Z,55.90
2022-08-26T07:19:03.595Z,55.90
2022-08-26T07:21:40.318Z,55.70
2022-08-26T07:24:11.553Z,55.90
2022-08-26T07:26:43.088Z,55.80
2022-08-26T07:29:12.341Z,55.80
2022-08-26T07:31:42.442Z,55.80
2022-08-26T07:34:14.963Z,55.70
2022-08-26T07:36:41.744Z,55.50
2022-08-26T07:39:09.042Z,55.80
2022-08-26T07:41:36.632Z,55.80
2022-08-26T07:44:04.297Z,55.90
2022-08-26T07:46:31.352Z,55.70
2022-08-26T07:48:58.658Z,56.10
2022-08-26T07:51:27.029Z,55.80
2022-08-26T07:53:55.541Z,55.80
2022-08-26T07:56:23.375Z,55.80
2022-08-26T07:58:52.895Z,55.80
2022-08-26T08:01:25.826Z,55.70
2022-08-26T08:03:56.608Z,55.30
2022-08-26T08:06:27.212Z,55.60
2022-08-26T08:08:55.545Z,55.40
2022-08-26T08:11:23.128Z,55.30
2022-08-26T08:13:56.112Z,55.40
2022-08-26T08:16:28.311Z,55.30
2022-08-26T08:18:59.542Z,55.50
2022-08-26T08:21:28.142Z,55.80
2022-08-26T08:23:57.180Z,55.80
2022-08-26T08:26:24.706Z,55.90
2022-08-26T08:28:54.712Z,57.80
2022-08-26T08:31:56.768Z,55.90
2022-08-26T08:34:19.230Z,55.80
2022-08-26T08:36:48.431Z,55.70
2022-08-26T08:39:16.907Z,55.50
2022-08-26T08:41:50.052Z,55.70
2022-08-26T08:44:31.469Z,55.60
2022-08-26T08:47:04.625Z,55.70
2022-08-26T08:49:33.584Z,55.60
2022-08-26T08:52:31.226Z,55.50
2022-08-26T08:54:58.240Z,55.60
2022-08-26T08:57:45.167Z,55.40
2022-08-26T09:00:22.390Z,55.50
2022-08-26T09:03:02.893Z,55.40
2022-08-26T09:05:34.752Z,55.30
2022-08-26T09:08:12.581Z,55.00
2022-08-26T09:10:52.948Z,55.80
2022-08-26T09:13:24.935Z,55.60
2022-08-26T09:16:22.048Z,55.60
2022-08-26T09:19:06.185Z,55.80
2022-08-26T09:21:33.276Z,55.80
2022-08-26T09:24:01.082Z,55.20
2022-08-26T09:26:31.317Z,55.30
2022-08-26T09:32:19.276Z,57.00
2022-08-26T09:34:53.753Z,55.30
2022-08-26T09:37:39.859Z,55.20
2022-08-26T09:40:36.123Z,56.00
2022-08-26T09:43:22.237Z,55.80
2022-08-26T09:45:59.609Z,55.60
2022-08-26T09:48:28.874Z,55.30
2022-08-26T09:50:59.755Z,55.20
2022-08-26T09:53:52.171Z,55.30
2022-08-26T09:56:21.693Z,56.00
2022-08-26T09:58:50.290Z,55.10
2022-08-26T10:01:30.086Z,54.90
2022-08-26T10:04:26.706Z,55.10
2022-08-26T10:07:03.036Z,56.30
2022-08-26T10:09:34.071Z,54.60
2022-08-26T10:12:15.323Z,54.50
2022-08-26T10:14:48.080Z,54.40
2022-08-26T10:17:23.449Z,54.30
2022-08-26T10:20:22.835Z,54.20
2022-08-26T10:23:08.539Z,55.10
2022-08-26T10:25:43.816Z,56.10
2022-08-26T10:28:21.664Z,54.70
2022-08-26T10:31:01.238Z,54.80
2022-08-26T10:33:28.267Z,55.10
2022-08-26T10:36:01.811Z,55.60
2022-08-26T10:38:40.010Z,55.40
2022-08-26T10:41:16.928Z,56.50
2022-08-26T10:43:55.100Z,55.40
2022-08-26T10:46:27.094Z,55.70
2022-08-26T10:48:57.482Z,55.50
2022-08-26T10:51:35.441Z,55.60
2022-08-26T10:54:19.753Z,55.40
2022-08-26T10:56:59.298Z,56.80
2022-08-26T10:59:46.418Z,56.70
2022-08-26T11:02:35.896Z,57.00
2022-08-26T11:05:22.687Z,57.20
2022-08-26T11:07:54.871Z,57.40
2022-08-26T11:10:22.477Z,56.70
2022-08-26T11:12:54.162Z,55.50
2022-08-26T11:15:24.555Z,55.80
2022-08-26T11:17:51.648Z,56.50
2022-08-26T11:20:37.297Z,55.90
2022-08-26T11:23:23.961Z,56.30
2022-08-26T11:25:56.998Z,56.70
2022-08-26T11:28:33.905Z,55.40
2022-08-26T11:31:01.714Z,55.50
2022-08-26T11:33:51.252Z,54.90
2022-08-26T11:36:39.621Z,56.50
2022-08-26T11:39:25.896Z,55.40
2022-08-26T11:41:55.604Z,54.90
2022-08-26T11:44:49.215Z,54.40
2022-08-26T11:47:17.618Z,54.60
2022-08-26T11:49:46.469Z,54.30
2022-08-26T11:52:20.930Z,54.60
2022-08-26T11:55:01.563Z,55.10
2022-08-26T11:57:29.122Z,54.70
2022-08-26T11:59:56.724Z,54.60
2022-08-26T12:02:24.660Z,54.80
2022-08-26T12:04:53.463Z,54.60
2022-08-26T12:07:27.723Z,54.30
2022-08-26T12:10:00.394Z,54.80
2022-08-26T12:12:35.195Z,54.80
2022-08-26T12:15:22.702Z,54.80
2022-08-26T12:17:54.346Z,55.40
2022-08-26T12:20:45.716Z,54.90
2022-08-26T12:23:41.228Z,55.30
2022-08-26T12:26:28.913Z,55.00
2022-08-26T12:29:12.652Z,54.90
2022-08-26T12:31:48.798Z,54.60
2022-08-26T12:34:18.130Z,54.40
2022-08-26T12:36:50.296Z,54.40
2022-08-26T12:39:34.349Z,54.60
2022-08-26T12:42:40.445Z,54.50
2022-08-26T12:45:10.080Z,54.50
2022-08-26T12:47:42.868Z,54.80
2022-08-26T12:50:27.343Z,54.90
2022-08-26T12:52:59.955Z,54.60
2022-08-26T12:55:47.645Z,55.10
2022-08-26T12:58:14.510Z,54.40
2022-08-26T13:00:45.461Z,54.00
2022-08-26T13:03:35.051Z,53.90
2022-08-26T13:06:31.525Z,54.60
2022-08-26T13:09:25.047Z,54.40
2022-08-26T13:11:54.577Z,54.50
2022-08-26T13:14:24.406Z,54.20
2022-08-26T13:16:52.830Z,54.20
2022-08-26T13:19:22.488Z,54.60
2022-08-26T13:21:57.387Z,54.50
2022-08-26T13:24:33.333Z,54.50
2022-08-26T13:27:01.220Z,54.70
2022-08-26T13:29:28.641Z,55.00
2022-08-26T13:31:56.250Z,55.40
2022-08-26T13:34:26.211Z,54.60
2022-08-26T13:36:54.918Z,54.40
2022-08-26T13:39:22.856Z,54.20
2022-08-26T13:41:49.685Z,54.10
2022-08-26T13:44:16.598Z,54.10
2022-08-26T13:49:15.406Z,54.40
2022-08-26T13:51:42.206Z,54.70
2022-08-26T13:54:09.159Z,55.00
2022-08-26T13:56:37.513Z,55.40
2022-08-26T13:59:05.598Z,55.00
2022-08-26T14:01:35.626Z,54.70
2022-08-26T14:04:03.225Z,55.30
2022-08-26T14:06:30.639Z,55.70
2022-08-26T14:08:57.868Z,55.40
2022-08-26T14:11:25.095Z,55.10
2022-08-26T14:13:52.413Z,54.60
2022-08-26T14:16:26.865Z,54.50
2022-08-26T14:18:54.094Z,54.30
2022-08-26T14:21:21.245Z,54.20
2022-08-26T14:23:48.105Z,54.60
2022-08-26T14:26:28.211Z,54.30
2022-08-26T14:28:58.051Z,54.40
2022-08-26T14:31:31.797Z,54.40
2022-08-26T14:34:04.999Z,54.40
2022-08-26T14:36:32.505Z,53.80
2022-08-26T14:39:07.010Z,53.90
2022-08-26T14:41:37.173Z,54.30
2022-08-26T14:44:10.969Z,54.30
2022-08-26T14:46:47.649Z,54.20
2022-08-26T14:49:15.248Z,53.70
2022-08-26T14:51:42.344Z,53.40
2022-08-26T14:54:13.543Z,54.00
2022-08-26T14:57:00.446Z,54.10
2022-08-26T14:59:30.660Z,55.20
2022-08-26T15:01:58.421Z,54.10
2022-08-26T15:04:25.425Z,54.60
2022-08-26T15:06:54.447Z,54.80
2022-08-26T15:09:22.289Z,54.40
2022-08-26T15:11:50.327Z,54.60
2022-08-26T15:14:19.524Z,54.60
2022-08-26T15:16:52.148Z,54.50
2022-08-26T15:19:19.766Z,54.90
2022-08-26T15:21:47.554Z,54.90
2022-08-26T15:24:17.783Z,54.80
2022-08-26T15:26:44.904Z,54.50
2022-08-26T15:29:11.798Z,54.10
2022-08-26T15:31:38.780Z,54.50
2022-08-26T15:34:12.088Z,53.90
2022-08-26T15:36:44.875Z,53.90
2022-08-26T15:39:12.141Z,54.30
2022-08-26T15:41:38.988Z,54.50
2022-08-26T15:44:07.357Z,54.20
2022-08-26T15:46:35.238Z,54.30
2022-08-26T15:49:03.424Z,54.30
2022-08-26T15:51:34.329Z,54.40
2022-08-26T15:54:03.545Z,54.10
2022-08-26T15:56:34.798Z,53.50
2022-08-26T15:59:03.716Z,54.00
2022-08-26T16:01:32.415Z,54.00
2022-08-26T16:03:59.774Z,54.00
2022-08-26T16:06:31.448Z,53.60
2022-08-26T16:09:00.008Z,53.70
2022-08-26T16:11:29.398Z,53.10
2022-08-26T16:13:56.245Z,52.40
2022-08-26T16:16:23.279Z,52.10
2022-08-26T16:18:50.135Z,52.50
2022-08-26T16:21:20.589Z,52.90
2022-08-26T16:23:48.429Z,52.50
2022-08-26T16:26:18.434Z,52.30
2022-08-26T16:28:45.548Z,52.20
2022-08-26T16:31:12.853Z,52.30
2022-08-26T16:33:39.983Z,52.20
2022-08-26T16:36:09.245Z,52.50
2022-08-26T16:38:38.104Z,51.60
2022-08-26T16:41:06.731Z,51.30
2022-08-26T16:43:33.896Z,51.00
2022-08-26T16:46:00.749Z,50.70
2022-08-26T16:48:27.955Z,52.10
2022-08-26T16:50:55.596Z,50.70
2022-08-26T16:53:23.265Z,51.00
2022-08-26T16:55:51.350Z,50.90
2022-08-26T16:58:21.957Z,50.80
2022-08-26T17:00:49.327Z,51.30
2022-08-26T17:03:16.259Z,51.10
2022-08-26T17:05:43.144Z,50.40
2022-08-26T17:08:10.137Z,50.30
2022-08-26T17:10:37.814Z,50.30
2022-08-26T17:13:04.875Z,50.70
2022-08-26T17:15:31.969Z,51.20
2022-08-26T17:17:59.175Z,50.50
2022-08-26T17:20:26.535Z,50.40
2022-08-26T17:22:55.062Z,50.10
2022-08-26T17:25:28.496Z,50.00
2022-08-26T17:30:23.980Z,49.70
2022-08-26T17:32:51.250Z,49.70
2022-08-26T17:35:18.278Z,49.80
2022-08-26T17:37:46.354Z,49.80
2022-08-26T17:40:17.464Z,49.70
2022-08-26T17:42:45.119Z,50.00
2022-08-26T17:45:12.743Z,49.80
2022-08-26T17:47:39.819Z,50.40
2022-08-26T17:50:09.219Z,50.40
2022-08-26T17:52:36.961Z,50.00
2022-08-26T17:55:05.607Z,50.50
2022-08-26T17:57:32.450Z,50.10
2022-08-26T18:00:11.433Z,50.00
2022-08-26T18:02:38.823Z,50.20
2022-08-26T18:05:06.670Z,50.40
2022-08-26T18:07:33.581Z,49.80
2022-08-26T18:10:13.080Z,49.60
2022-08-26T18:12:41.359Z,50.00
2022-08-26T18:15:09.393Z,49.30
2022-08-26T18:17:36.122Z,49.50
2022-08-26T18:20:04.081Z,49.30
2022-08-26T18:22:30.860Z,49.50
2022-08-26T18:24:59.066Z,49.40
2022-08-26T18:27:26.570Z,49.50
2022-08-26T18:29:54.598Z,50.00
2022-08-26T18:32:21.587Z,49.10
2022-08-26T18:34:48.479Z,49.20
2022-08-26T18:37:15.394Z,48.80
2022-08-26T18:39:42.082Z,49.00
2022-08-26T18:42:09.284Z,49.50
2022-08-26T18:44:36.565Z,49.00
2022-08-26T18:47:03.355Z,50.30
2022-08-26T18:49:30.323Z,49.10
2022-08-26T18:51:57.144Z,48.80
2022-08-26T18:54:23.891Z,50.30
2022-08-26T18:56:50.813Z,49.30
2022-08-26T18:59:18.289Z,48.80
2022-08-26T19:01:45.678Z,49.20
2022-08-26T19:04:14.733Z,49.60
2022-08-26T19:06:43.142Z,48.70
2022-08-26T19:09:11.942Z,48.30
2022-08-26T19:11:42.965Z,48.80
2022-08-26T19:14:15.859Z,48.30
2022-08-26T19:16:46.677Z,48.50
2022-08-26T19:19:14.729Z,48.10
2022-08-26T19:21:41.908Z,47.90
2022-08-26T19:24:15.326Z,47.50
2022-08-26T19:26:47.616Z,47.40
2022-08-26T19:29:15.390Z,47.60
2022-08-26T19:31:43.162Z,47.90
2022-08-26T19:34:11.560Z,48.00
2022-08-26T19:36:38.853Z,47.50
2022-08-26T19:39:11.935Z,47.50
2022-08-26T19:41:39.917Z,47.50
2022-08-26T19:44:10.074Z,47.50
2022-08-26T19:49:09.149Z,47.20
2022-08-26T19:51:36.564Z,47.00
2022-08-26T19:54:04.336Z,47.20
2022-08-26T19:56:31.289Z,47.20
2022-08-26T19:58:58.356Z,47.10
2022-08-26T20:01:25.616Z,47.10
2022-08-26T20:03:52.744Z,47.10
2022-08-26T20:06:20.148Z,47.30
2022-08-26T20:08:47.464Z,47.10
2022-08-26T20:11:18.957Z,47.30
2022-08-26T20:13:47.062Z,47.10
2022-08-26T20:16:15.409Z,47.00
2022-08-26T20:19:02.376Z,47.40
2022-08-26T20:21:34.223Z,47.30
2022-08-26T20:24:04.671Z,47.10
2022-08-26T20:26:35.280Z,47.80
2022-08-26T20:29:02.290Z,47.30
2022-08-26T20:31:29.718Z,47.30
2022-08-26T20:33:57.089Z,47.20
2022-08-26T20:36:26.872Z,47.30
2022-08-26T20:38:55.332Z,47.50
2022-08-26T20:41:24.132Z,47.70
2022-08-26T20:43:51.311Z,47.70
2022-08-26T20:46:21.065Z,47.50
2022-08-26T20:48:51.154Z,47.40
2022-08-26T20:51:19.160Z,47.30
2022-08-26T20:53:46.292Z,47.50
2022-08-26T20:56:14.918Z,47.70
2022-08-26T20:58:43.236Z,47.30
2022-08-26T21:01:17.923Z,47.20
2022-08-26T21:03:45.121Z,50.50
2022-08-26T21:06:12.530Z,47.80
2022-08-26T21:08:42.527Z,47.70
2022-08-26T21:11:11.051Z,47.80
2022-08-26T21:13:54.431Z,47.70
2022-08-26T21:16:25.424Z,54.40
2022-08-26T21:18:52.744Z,48.00
2022-08-26T21:21:20.109Z,47.90
2022-08-26T21:23:52.037Z,48.20
2022-08-26T21:26:18.985Z,48.40
2022-08-26T21:28:46.410Z,49.00
2022-08-26T21:31:17.003Z,48.80
2022-08-26T21:33:44.170Z,48.80
2022-08-26T21:36:12.536Z,48.50
2022-08-26T21:38:39.930Z,48.60
2022-08-26T21:41:11.976Z,51.40
2022-08-26T21:43:40.033Z,49.00
2022-08-26T21:46:14.504Z,48.80
2022-08-26T21:48:50.727Z,48.70
2022-08-26T21:51:20.477Z,48.50
2022-08-26T21:53:48.117Z,48.80
2022-08-26T21:56:17.883Z,48.90
2022-08-26T21:58:45.275Z,48.90
2022-08-26T22:01:14.528Z,48.90
2022-08-26T22:03:47.409Z,49.00
2022-08-26T22:06:17.166Z,49.20
2022-08-26T22:08:44.060Z,49.10
2022-08-26T22:11:11.423Z,48.90
2022-08-26T22:13:40.272Z,48.80
2022-08-26T22:16:08.226Z,48.60
2022-08-26T22:18:36.164Z,48.50
2022-08-26T22:21:07.438Z,48.60
2022-08-26T22:23:35.286Z,48.60
2022-08-26T22:26:03.015Z,48.70
2022-08-26T22:28:29.866Z,48.90
2022-08-26T22:30:56.781Z,48.80
2022-08-26T22:33:24.696Z,48.70
2022-08-26T22:35:53.015Z,48.70
2022-08-26T22:38:20.791Z,48.50
2022-08-26T22:40:50.882Z,48.40
2022-08-26T22:43:19.275Z,48.60
2022-08-26T22:45:48.639Z,48.50
2022-08-26T22:48:18.573Z,48.60
2022-08-26T22:50:46.729Z,48.70
2022-08-26T22:53:14.964Z,48.50
2022-08-26T22:55:43.269Z,48.60
2022-08-26T22:58:12.229Z,51.10
2022-08-26T23:00:40.026Z,48.90
2022-08-26T23:03:10.771Z,48.80
2022-08-26T23:05:38.787Z,48.90
2022-08-26T23:08:06.091Z,48.70
2022-08-26T23:10:33.012Z,49.10
2022-08-26T23:12:59.841Z,49.20
2022-08-26T23:15:27.062Z,49.00
2022-08-26T23:17:58.536Z,49.20
2022-08-26T23:20:27.385Z,49.10
2022-08-26T23:22:54.737Z,49.20
2022-08-26T23:25:22.392Z,49.20
2022-08-26T23:27:51.888Z,49.40
2022-08-26T23:30:23.074Z,49.30
2022-08-26T23:32:50.752Z,49.10
2022-08-26T23:35:21.602Z,49.40
2022-08-26T23:37:52.531Z,49.50
2022-08-26T23:40:22.393Z,49.50
2022-08-26T23:42:51.903Z,49.50
2022-08-26T23:45:20.035Z,49.60
2022-08-26T23:47:48.495Z,49.60
2022-08-26T23:50:15.306Z,49.70
2022-08-26T23:53:00.533Z,49.90
2022-08-26T23:55:27.997Z,49.80
2022-08-26T23:57:55.126Z,49.90
